createdAt,value
2018-02-19T00:01:10.453Z,11.37
2018-02-19T00:03:37.991Z,12.10
2018-02-19T00:06:05.566Z,10.40
2018-02-19T00:08:33.109Z,9.77
2018-02-19T00:11:01.395Z,9.80
2018-02-19T00:13:29.087Z,10.87
2018-02-19T00:15:56.613Z,11.37
2018-02-19T00:18:24.140Z,9.17
2018-02-19T00:20:51.712Z,10.70
2018-02-19T00:23:20.005Z,9.30
2018-02-19T00:25:47.762Z,10.30
2018-02-19T00:28:15.311Z,9.97
2018-02-19T00:30:43.843Z,10.50
2018-02-19T00:33:11.370Z,9.00
2018-02-19T00:35:39.067Z,9.50
2018-02-19T00:38:06.598Z,8.80
2018-02-19T00:40:34.885Z,9.50
2018-02-19T00:43:02.437Z,9.63
2018-02-19T00:45:30.315Z,9.77
2018-02-19T00:47:57.857Z,10.40
2018-02-19T00:50:26.195Z,9.50
2018-02-19T00:52:53.732Z,8.13
2018-02-19T00:55:21.259Z,9.90
2018-02-19T00:57:48.848Z,8.18
2018-02-19T01:00:16.374Z,10.07
2018-02-19T01:02:44.133Z,10.35
2018-02-19T01:05:12.460Z,11.15
2018-02-19T01:07:40.006Z,10.23
2018-02-19T01:10:07.566Z,11.40
2018-02-19T01:12:35.121Z,8.47
2018-02-19T01:15:02.667Z,10.13
2018-02-19T01:17:30.214Z,8.32
2018-02-19T01:19:58.617Z,10.10
2018-02-19T01:22:26.158Z,10.07
2018-02-19T01:24:53.717Z,10.00
2018-02-19T01:27:21.410Z,9.27
2018-02-19T01:29:48.946Z,10.07
2018-02-19T01:32:17.236Z,8.80
2018-02-19T01:34:44.796Z,8.95
2018-02-19T01:37:12.330Z,9.00
2018-02-19T01:39:40.640Z,8.32
2018-02-19T01:42:08.510Z,8.23
2018-02-19T01:44:36.071Z,8.10
2018-02-19T01:47:03.801Z,9.13
2018-02-19T01:49:31.372Z,9.63
2018-02-19T01:51:58.915Z,8.80
2018-02-19T01:54:26.433Z,8.75
2018-02-19T01:56:54.043Z,9.25
2018-02-19T01:59:22.347Z,8.50
2018-02-19T02:01:49.901Z,9.40
2018-02-19T02:04:17.466Z,7.60
2018-02-19T02:06:45.000Z,8.27
2018-02-19T02:09:13.329Z,9.18
2018-02-19T02:11:40.889Z,8.05
2018-02-19T02:14:08.473Z,7.50
2018-02-19T02:16:36.007Z,8.43
2018-02-19T02:19:03.772Z,7.95
2018-02-19T02:21:31.306Z,7.65
2018-02-19T02:23:58.836Z,8.13
2018-02-19T02:26:26.397Z,8.30
2018-02-19T02:28:53.932Z,7.12
2018-02-19T02:31:21.470Z,7.93
2018-02-19T02:33:49.031Z,8.23
2018-02-19T02:36:16.770Z,6.95
2018-02-19T02:38:44.386Z,8.45
2018-02-19T02:41:12.918Z,7.87
2018-02-19T02:43:40.514Z,7.35
2018-02-19T02:46:08.058Z,8.38
2018-02-19T02:48:35.741Z,8.55
2018-02-19T02:51:03.352Z,6.82
2018-02-19T02:53:31.245Z,8.23
2018-02-19T02:55:59.146Z,6.60
2018-02-19T02:58:27.107Z,7.60
2018-02-19T03:00:55.521Z,7.12
2018-02-19T03:03:23.959Z,6.28
2018-02-19T03:05:51.869Z,6.50
2018-02-19T03:08:20.357Z,6.85
2018-02-19T03:10:48.962Z,7.50
2018-02-19T03:13:16.566Z,7.22
2018-02-19T03:15:44.481Z,6.75
2018-02-19T03:18:12.964Z,6.28
2018-02-19T03:20:41.589Z,6.70
2018-02-19T03:23:10.081Z,5.90
2018-02-19T03:25:38.414Z,7.00
2018-02-19T03:28:06.818Z,6.10
2018-02-19T03:30:34.822Z,7.60
2018-02-19T03:33:02.752Z,8.15
2018-02-19T03:35:30.291Z,6.87
2018-02-19T03:37:57.824Z,6.07
2018-02-19T03:40:25.381Z,6.20
2018-02-19T03:42:52.906Z,6.40
2018-02-19T03:45:20.416Z,5.93
2018-02-19T03:47:47.973Z,7.05
2018-02-19T03:50:15.942Z,7.70
2018-02-19T03:52:43.456Z,7.82
2018-02-19T03:55:11.117Z,6.95
2018-02-19T03:57:38.636Z,7.75
2018-02-19T04:00:06.928Z,7.20
2018-02-19T04:02:34.496Z,6.95
2018-02-19T04:05:02.079Z,7.25
2018-02-19T04:07:29.581Z,6.55
2018-02-19T04:09:57.139Z,6.78
2018-02-19T04:12:24.665Z,7.07
2018-02-19T04:14:52.196Z,6.82
2018-02-19T04:17:19.748Z,7.37
2018-02-19T04:19:47.298Z,6.55
2018-02-19T04:22:15.590Z,6.97
2018-02-19T04:24:43.145Z,6.75
2018-02-19T04:27:10.683Z,5.75
2018-02-19T04:29:38.214Z,6.87
2018-02-19T04:32:06.059Z,6.55
2018-02-19T04:34:33.671Z,6.55
2018-02-19T04:37:01.189Z,8.20
2018-02-19T04:39:28.729Z,6.18
2018-02-19T04:41:56.244Z,6.57
2018-02-19T04:44:35.790Z,6.22
2018-02-19T04:47:05.158Z,5.25
2018-02-19T04:49:32.682Z,6.62
2018-02-19T04:52:00.453Z,6.15
2018-02-19T04:54:27.986Z,7.37
2018-02-19T04:56:56.278Z,6.90
2018-02-19T04:59:23.827Z,6.32
2018-02-19T05:01:52.127Z,7.60
2018-02-19T05:04:19.648Z,8.20
2018-02-19T05:06:47.426Z,8.13
2018-02-19T05:09:14.948Z,8.63
2018-02-19T05:11:42.486Z,7.95
2018-02-19T05:14:10.038Z,7.60
2018-02-19T05:16:37.658Z,9.32
2018-02-19T05:19:05.186Z,7.72
2018-02-19T05:21:32.733Z,9.23
2018-02-19T05:24:00.272Z,8.63
2018-02-19T05:26:27.952Z,8.00
2018-02-19T05:28:55.519Z,8.98
2018-02-19T05:31:23.232Z,7.28
2018-02-19T05:33:51.538Z,8.93
2018-02-19T05:36:19.150Z,10.25
2018-02-19T05:38:47.538Z,8.32
2018-02-19T05:41:15.093Z,8.63
2018-02-19T05:43:42.658Z,9.63
2018-02-19T05:46:10.190Z,8.25
2018-02-19T05:48:37.836Z,9.18
2018-02-19T05:51:05.389Z,11.63
2018-02-19T05:53:33.214Z,9.02
2018-02-19T05:56:00.754Z,8.95
2018-02-19T05:58:28.297Z,10.50
2018-02-19T06:00:55.809Z,9.55
2018-02-19T06:03:23.338Z,8.15
2018-02-19T06:05:51.042Z,8.65
2018-02-19T06:08:18.560Z,8.60
2018-02-19T06:10:46.094Z,9.15
2018-02-19T06:13:13.923Z,8.85
2018-02-19T06:15:41.473Z,9.07
2018-02-19T06:18:09.766Z,9.40
2018-02-19T06:20:37.777Z,9.07
2018-02-19T06:23:06.435Z,7.65
2018-02-19T06:25:34.771Z,8.85
2018-02-19T06:28:02.394Z,10.30
2018-02-19T06:30:29.925Z,11.05
2018-02-19T06:32:57.501Z,9.43
2018-02-19T06:35:25.059Z,8.95
2018-02-19T06:37:52.575Z,8.50
2018-02-19T06:40:20.190Z,7.05
2018-02-19T06:42:47.758Z,7.85
2018-02-19T06:45:15.573Z,8.90
2018-02-19T06:47:43.102Z,7.82
2018-02-19T06:50:10.674Z,7.50
2018-02-19T06:52:38.198Z,7.97
2018-02-19T06:55:06.065Z,8.05
2018-02-19T06:57:33.794Z,6.90
2018-02-19T07:00:01.336Z,7.37
2018-02-19T07:02:28.859Z,7.78
2018-02-19T07:04:56.408Z,6.97
2018-02-19T07:07:23.930Z,6.25
2018-02-19T07:09:51.579Z,7.28
2018-02-19T07:12:19.137Z,6.37
2018-02-19T07:14:46.685Z,6.60
2018-02-19T07:17:14.202Z,7.37
2018-02-19T07:19:41.754Z,6.30
2018-02-19T07:22:09.301Z,6.80
2018-02-19T07:24:37.605Z,6.75
2018-02-19T07:27:05.153Z,7.05
2018-02-19T07:29:32.789Z,7.30
2018-02-19T07:32:00.353Z,8.05
2018-02-19T07:34:28.794Z,7.07
2018-02-19T07:36:56.350Z,8.10
2018-02-19T07:39:23.905Z,7.80
2018-02-19T07:41:51.451Z,8.10
2018-02-19T07:44:19.007Z,8.38
2018-02-19T07:46:46.535Z,8.50
2018-02-19T07:49:14.855Z,7.60
2018-02-19T07:51:42.388Z,9.27
2018-02-19T07:54:09.944Z,8.57
2018-02-19T07:56:38.565Z,10.10
2018-02-19T07:59:06.270Z,8.48
2018-02-19T08:01:34.599Z,8.50
2018-02-19T08:04:02.170Z,8.75
2018-02-19T08:06:30.200Z,8.75
2018-02-19T08:08:57.740Z,7.90
2018-02-19T08:11:26.140Z,8.70
2018-02-19T08:13:53.669Z,9.10
2018-02-19T08:16:21.192Z,10.73
2018-02-19T08:18:48.730Z,8.63
2018-02-19T08:21:16.254Z,8.30
2018-02-19T08:23:43.784Z,8.83
2018-02-19T08:26:12.462Z,8.07
2018-02-19T08:28:40.055Z,8.30
2018-02-19T08:31:07.583Z,7.40
2018-02-19T08:33:35.166Z,7.00
2018-02-19T08:36:03.856Z,8.00
2018-02-19T08:38:31.370Z,8.23
2018-02-19T08:40:58.927Z,7.60
2018-02-19T08:43:26.462Z,8.90
2018-02-19T08:45:54.737Z,7.83
2018-02-19T08:48:23.041Z,7.73
2018-02-19T08:50:50.560Z,8.23
2018-02-19T08:53:18.088Z,8.00
2018-02-19T08:55:45.727Z,8.60
2018-02-19T08:58:14.482Z,7.57
2018-02-19T09:00:42.765Z,8.13
2018-02-19T09:03:11.074Z,8.20
2018-02-19T09:05:38.594Z,8.80
2018-02-19T09:08:06.126Z,6.70
2018-02-19T09:10:33.684Z,6.90
2018-02-19T09:13:01.365Z,7.60
2018-02-19T09:15:28.879Z,7.10
2018-02-19T09:17:57.562Z,6.00
2018-02-19T09:20:25.083Z,7.83
2018-02-19T09:22:53.379Z,8.37
2018-02-19T09:25:20.966Z,6.90
2018-02-19T09:27:48.494Z,7.60
2018-02-19T09:30:16.786Z,7.70
2018-02-19T09:32:44.337Z,7.77
2018-02-19T09:35:11.882Z,6.00
2018-02-19T09:37:40.459Z,7.33
2018-02-19T09:40:08.775Z,6.10
2018-02-19T09:42:36.295Z,7.37
2018-02-19T09:45:03.815Z,6.60
2018-02-19T09:47:31.365Z,6.00
2018-02-19T09:49:58.881Z,7.40
2018-02-19T09:52:27.166Z,6.50
2018-02-19T09:54:55.469Z,6.40
2018-02-19T09:57:23.199Z,6.17
2018-02-19T09:59:50.652Z,6.97
2018-02-19T10:02:18.192Z,5.20
2018-02-19T10:04:45.708Z,5.90
2018-02-19T10:07:13.233Z,6.10
2018-02-19T10:09:41.160Z,7.57
2018-02-19T10:12:08.719Z,6.23
2018-02-19T10:14:36.229Z,6.30
2018-02-19T10:17:03.775Z,7.10
2018-02-19T10:19:31.289Z,6.83
2018-02-19T10:21:58.811Z,6.37
2018-02-19T10:24:26.352Z,7.63
2018-02-19T10:26:54.127Z,5.77
2018-02-19T10:29:21.645Z,7.57
2018-02-19T10:31:49.190Z,7.50
2018-02-19T10:34:16.705Z,5.77
2018-02-19T10:36:44.244Z,7.10
2018-02-19T10:39:11.811Z,5.57
2018-02-19T10:41:39.341Z,6.30
2018-02-19T10:44:13.198Z,5.80
2018-02-19T10:46:41.509Z,4.70
2018-02-19T10:49:09.026Z,6.33
2018-02-19T10:51:37.309Z,5.70
2018-02-19T10:54:04.838Z,5.80
2018-02-19T10:56:32.354Z,5.80
2018-02-19T10:59:00.017Z,5.83
2018-02-19T11:01:27.755Z,6.40
2018-02-19T11:03:55.269Z,6.77
2018-02-19T11:06:22.893Z,6.03
2018-02-19T11:08:50.421Z,6.50
2018-02-19T11:11:17.944Z,6.80
2018-02-19T11:13:45.478Z,5.30
2018-02-19T11:16:12.991Z,5.73
2018-02-19T11:18:40.501Z,6.80
2018-02-19T11:21:08.046Z,6.43
2018-02-19T11:23:35.563Z,7.43
2018-02-19T11:26:03.096Z,7.20
2018-02-19T11:28:30.634Z,6.10
2018-02-19T11:30:58.163Z,6.30
2018-02-19T11:33:25.692Z,6.23
2018-02-19T11:35:53.255Z,7.43
2018-02-19T11:38:20.778Z,7.07
2018-02-19T11:40:48.507Z,7.87
2018-02-19T11:43:16.101Z,6.67
2018-02-19T11:45:43.647Z,6.37
2018-02-19T11:48:11.970Z,7.33
2018-02-19T11:50:39.523Z,7.07
2018-02-19T11:53:07.182Z,7.27
2018-02-19T11:55:34.706Z,7.50
2018-02-19T11:58:02.256Z,6.40
2018-02-19T12:00:30.579Z,6.83
2018-02-19T12:02:58.697Z,6.10
2018-02-19T12:05:26.234Z,7.00
2018-02-19T12:07:53.746Z,7.00
2018-02-19T12:10:21.279Z,5.93
2018-02-19T12:12:50.254Z,6.13
2018-02-19T12:15:18.321Z,7.40
2018-02-19T12:17:45.861Z,6.30
2018-02-19T12:20:13.561Z,7.17
2018-02-19T12:22:41.102Z,7.10
2018-02-19T12:25:09.003Z,5.80
2018-02-19T12:27:36.568Z,6.30
2018-02-19T12:30:05.138Z,7.00
2018-02-19T12:32:32.655Z,6.63
2018-02-19T12:35:00.221Z,6.17
2018-02-19T12:37:27.793Z,6.33
2018-02-19T12:39:55.322Z,6.20
2018-02-19T12:42:22.878Z,6.70
2018-02-19T12:44:50.396Z,6.73
2018-02-19T12:47:18.013Z,5.43
2018-02-19T12:49:45.711Z,6.80
2018-02-19T12:52:13.224Z,6.93
2018-02-19T12:54:40.955Z,5.97
2018-02-19T12:57:08.505Z,5.80
2018-02-19T12:59:36.023Z,6.70
2018-02-19T13:02:03.709Z,6.50
2018-02-19T13:04:31.533Z,7.53
2018-02-19T13:06:59.057Z,6.70
2018-02-19T13:09:26.620Z,5.50
2018-02-19T13:11:54.938Z,7.90
2018-02-19T13:14:22.460Z,6.33
2018-02-19T13:16:49.965Z,6.43
2018-02-19T13:19:17.703Z,6.77
2018-02-19T13:21:46.143Z,7.17
2018-02-19T13:24:13.907Z,7.97
2018-02-19T13:26:41.472Z,6.20
2018-02-19T13:29:08.981Z,6.80
2018-02-19T13:31:36.699Z,6.70
2018-02-19T13:34:04.251Z,5.80
2018-02-19T13:36:31.780Z,7.23
2018-02-19T13:38:59.290Z,6.30
2018-02-19T13:41:26.849Z,7.17
2018-02-19T13:43:54.526Z,6.77
2018-02-19T13:46:22.809Z,7.50
2018-02-19T13:48:50.362Z,6.90
2018-02-19T13:51:18.653Z,6.47
2018-02-19T13:53:46.254Z,6.20
2018-02-19T13:56:13.793Z,7.87
2018-02-19T13:58:41.339Z,6.30
2018-02-19T14:01:08.951Z,6.30
2018-02-19T14:03:36.510Z,7.43
2018-02-19T14:06:04.413Z,7.30
2018-02-19T14:08:31.986Z,6.00
2018-02-19T14:10:59.517Z,6.67
2018-02-19T14:13:27.138Z,7.77
2018-02-19T14:15:54.695Z,6.70
2018-02-19T14:18:22.258Z,6.00
2018-02-19T14:20:51.503Z,7.77
2018-02-19T14:23:19.023Z,7.27
2018-02-19T14:25:46.586Z,5.60
2018-02-19T14:28:14.158Z,6.30
2018-02-19T14:30:41.729Z,7.97
2018-02-19T14:33:09.303Z,6.50
2018-02-19T14:35:36.815Z,7.50
2018-02-19T14:38:04.357Z,8.70
2018-02-19T14:40:31.910Z,8.40
2018-02-19T14:43:00.354Z,7.30
2018-02-19T14:45:27.891Z,8.03
2018-02-19T14:47:55.453Z,7.80
2018-02-19T14:50:23.015Z,7.00
2018-02-19T14:52:50.539Z,6.20
2018-02-19T14:55:18.093Z,7.57
2018-02-19T14:57:45.837Z,6.33
2018-02-19T15:00:14.127Z,7.63
2018-02-19T15:02:41.689Z,8.03
2018-02-19T15:05:10.386Z,7.13
2018-02-19T15:07:38.003Z,7.13
2018-02-19T15:10:06.928Z,7.83
2018-02-19T15:12:35.214Z,6.97
2018-02-19T15:15:02.731Z,8.60
2018-02-19T15:17:30.276Z,9.40
2018-02-19T15:19:57.798Z,8.20
2018-02-19T15:22:25.317Z,8.20
2018-02-19T15:24:53.020Z,8.90
2018-02-19T15:27:20.550Z,8.77
2018-02-19T15:29:48.848Z,7.37
2018-02-19T15:32:16.402Z,8.87
2018-02-19T15:34:43.997Z,10.10
2018-02-19T15:37:11.550Z,8.37
2018-02-19T15:39:39.108Z,8.77
2018-02-19T15:42:06.681Z,9.20
2018-02-19T15:44:34.200Z,9.03
2018-02-19T15:47:03.642Z,9.67
2018-02-19T15:49:31.160Z,8.60
2018-02-19T15:51:59.449Z,9.43
2018-02-19T15:54:27.002Z,7.80
2018-02-19T15:56:54.521Z,8.20
2018-02-19T15:59:22.047Z,7.93
2018-02-19T16:01:49.639Z,8.80
2018-02-19T16:04:17.181Z,8.20
2018-02-19T16:06:44.705Z,8.00
2018-02-19T16:09:12.584Z,8.43
2018-02-19T16:11:40.116Z,8.93
2018-02-19T16:14:08.407Z,10.23
2018-02-19T16:16:37.106Z,9.30
2018-02-19T16:19:05.068Z,9.23
2018-02-19T16:21:32.622Z,8.90
2018-02-19T16:24:01.435Z,9.87
2018-02-19T16:26:28.964Z,8.00
2018-02-19T16:28:57.583Z,9.37
2018-02-19T16:31:25.243Z,9.60
2018-02-19T16:33:52.864Z,12.07
2018-02-19T16:36:20.392Z,9.90
2018-02-19T16:38:48.253Z,9.33
2018-02-19T16:41:15.779Z,9.93
2018-02-19T16:43:44.317Z,10.30
2018-02-19T16:46:11.977Z,9.43
2018-02-19T16:48:39.547Z,9.97
2018-02-19T16:51:08.277Z,8.10
2018-02-19T16:53:37.029Z,10.33
2018-02-19T16:56:04.770Z,12.17
2018-02-19T16:58:32.490Z,11.10
2018-02-19T17:01:00.253Z,12.47
2018-02-19T17:03:27.839Z,9.93
2018-02-19T17:05:55.618Z,9.83
2018-02-19T17:08:23.467Z,12.50
2018-02-19T17:10:51.426Z,13.03
2018-02-19T17:13:19.237Z,12.77
2018-02-19T17:15:46.964Z,10.43
2018-02-19T17:18:16.016Z,11.97
2018-02-19T17:20:44.885Z,10.97
2018-02-19T17:23:13.768Z,9.93
2018-02-19T17:25:43.131Z,11.10
2018-02-19T17:28:12.030Z,9.37
2018-02-19T17:30:39.569Z,9.60
2018-02-19T17:33:08.584Z,10.50
2018-02-19T17:35:37.772Z,10.53
2018-02-19T17:38:06.672Z,9.93
2018-02-19T17:40:35.936Z,9.87
2018-02-19T17:43:04.848Z,9.77
2018-02-19T17:45:33.845Z,12.37
2018-02-19T17:48:02.812Z,12.82
2018-02-19T17:50:31.689Z,9.60
2018-02-19T17:53:00.599Z,9.70
2018-02-19T17:55:29.491Z,10.60
2018-02-19T17:57:58.428Z,11.05
2018-02-19T18:00:27.338Z,11.23
2018-02-19T18:02:56.230Z,12.05
2018-02-19T18:05:25.120Z,13.85
2018-02-19T18:07:54.044Z,12.02
2018-02-19T18:10:22.937Z,12.23
2018-02-19T18:12:51.876Z,12.37
2018-02-19T18:15:20.802Z,12.88
2018-02-19T18:17:49.685Z,13.82
2018-02-19T18:20:18.569Z,13.75
2018-02-19T18:22:47.486Z,13.00
2018-02-19T18:25:16.365Z,14.15
2018-02-19T18:27:45.258Z,14.48
2018-02-19T18:30:14.271Z,11.55
2018-02-19T18:32:43.152Z,14.18
2018-02-19T18:35:12.033Z,14.63
2018-02-19T18:37:40.986Z,13.95
2018-02-19T18:40:09.942Z,13.33
2018-02-19T18:42:38.827Z,14.00
2018-02-19T18:45:07.749Z,14.05
2018-02-19T18:47:36.630Z,12.95
2018-02-19T18:50:05.501Z,13.70
2018-02-19T18:52:34.392Z,12.60
2018-02-19T18:55:03.283Z,13.13
2018-02-19T18:57:32.156Z,13.70
2018-02-19T19:00:01.056Z,14.20
2018-02-19T19:02:30.022Z,14.13
2018-02-19T19:04:59.113Z,12.80
2018-02-19T19:07:33.890Z,13.32
2018-02-19T19:10:08.542Z,13.15
2018-02-19T19:12:37.491Z,13.70
2018-02-19T19:15:06.765Z,14.90
2018-02-19T19:17:35.640Z,14.48
2018-02-19T19:20:04.547Z,12.80
2018-02-19T19:22:33.598Z,12.98
2018-02-19T19:25:02.481Z,13.90
2018-02-19T19:27:31.640Z,13.98
2018-02-19T19:30:00.529Z,13.75
2018-02-19T19:32:29.396Z,15.67
2018-02-19T19:34:58.641Z,13.13
2018-02-19T19:37:27.533Z,12.73
2018-02-19T19:39:56.420Z,14.18
2018-02-19T19:42:25.359Z,12.52
2018-02-19T19:44:54.297Z,15.30
2018-02-19T19:47:23.189Z,13.48
2018-02-19T19:49:52.106Z,11.20
2018-02-19T19:52:21.272Z,14.30
2018-02-19T19:54:50.149Z,14.32
2018-02-19T19:57:19.071Z,13.98
2018-02-19T19:59:47.973Z,12.60
2018-02-19T20:02:16.866Z,15.10
2018-02-19T20:04:45.878Z,13.88
2018-02-19T20:07:14.826Z,14.57
2018-02-19T20:09:43.738Z,14.40
2018-02-19T20:12:12.650Z,13.95
2018-02-19T20:14:41.587Z,16.50
2018-02-19T20:17:10.956Z,13.05
2018-02-19T20:19:39.907Z,15.32
2018-02-19T20:22:08.959Z,14.02
2018-02-19T20:24:37.855Z,14.15
2018-02-19T20:27:06.766Z,13.65
2018-02-19T20:29:35.672Z,13.55
2018-02-19T20:32:04.629Z,13.23
2018-02-19T20:34:33.569Z,15.20
2018-02-19T20:37:02.462Z,14.65
2018-02-19T20:39:31.358Z,14.20
2018-02-19T20:42:00.417Z,14.70
2018-02-19T20:44:29.639Z,14.07
2018-02-19T20:46:58.518Z,14.85
2018-02-19T20:49:27.428Z,14.57
2018-02-19T20:51:56.559Z,13.40
2018-02-19T20:54:25.600Z,13.50
2018-02-19T20:56:54.514Z,14.20
2018-02-19T20:59:23.459Z,14.07
2018-02-19T21:01:52.349Z,14.80
2018-02-19T21:04:21.253Z,14.43
2018-02-19T21:06:50.198Z,13.62
2018-02-19T21:09:19.134Z,14.73
2018-02-19T21:11:48.070Z,12.88
2018-02-19T21:14:17.050Z,14.55
2018-02-19T21:16:45.924Z,13.10
2018-02-19T21:19:15.172Z,15.75
2018-02-19T21:21:44.051Z,14.60
2018-02-19T21:24:12.934Z,15.00
2018-02-19T21:26:41.833Z,15.50
2018-02-19T21:29:10.703Z,15.77
2018-02-19T21:31:39.602Z,14.35
2018-02-19T21:34:08.537Z,15.63
2018-02-19T21:36:37.483Z,14.60
2018-02-19T21:39:06.357Z,13.00
2018-02-19T21:41:35.269Z,13.80
2018-02-19T21:44:04.362Z,15.77
2018-02-19T21:46:33.240Z,16.10
2018-02-19T21:49:02.137Z,14.00
2018-02-19T21:51:31.017Z,14.63
2018-02-19T21:53:59.897Z,15.63
2018-02-19T21:56:29.138Z,16.45
2018-02-19T21:58:58.438Z,15.95
2018-02-19T22:01:27.471Z,16.40
2018-02-19T22:03:56.633Z,16.70
2018-02-19T22:06:25.709Z,15.95
2018-02-19T22:08:54.806Z,15.13
2018-02-19T22:11:23.764Z,17.10
2018-02-19T22:13:52.674Z,15.98
2018-02-19T22:16:22.005Z,17.45
2018-02-19T22:18:50.942Z,16.80
2018-02-19T22:21:20.530Z,16.20
2018-02-19T22:23:49.464Z,14.73
2018-02-19T22:26:18.594Z,17.25
2018-02-19T22:28:47.471Z,16.05
2018-02-19T22:31:16.466Z,18.33
2018-02-19T22:33:45.454Z,17.73
2018-02-19T22:36:14.584Z,15.60
2018-02-19T22:38:43.659Z,15.82
2018-02-19T22:41:12.634Z,18.62
2018-02-19T22:43:41.664Z,16.52
2018-02-19T22:46:10.544Z,15.10
2018-02-19T22:48:39.445Z,15.77
2018-02-19T22:51:08.682Z,15.15
2018-02-19T22:53:37.600Z,14.30
2018-02-19T22:56:06.941Z,15.82
2018-02-19T22:58:36.211Z,14.05
2018-02-19T23:01:05.125Z,15.90
2018-02-19T23:03:34.347Z,15.18
2018-02-19T23:06:03.235Z,17.02
2018-02-19T23:08:32.108Z,17.20
2018-02-19T23:11:01.011Z,16.55
2018-02-19T23:13:29.894Z,16.05
2018-02-19T23:15:58.791Z,16.90
2018-02-19T23:18:27.684Z,16.77
2018-02-19T23:20:56.559Z,15.55
2018-02-19T23:23:25.786Z,14.80
2018-02-19T23:25:54.682Z,16.70
2018-02-19T23:28:23.565Z,15.73
2018-02-19T23:30:52.437Z,15.52
2018-02-19T23:33:21.369Z,15.95
2018-02-19T23:35:50.245Z,13.23
2018-02-19T23:38:19.125Z,14.70
2018-02-19T23:40:48.029Z,16.15
2018-02-19T23:43:16.909Z,15.02
2018-02-19T23:45:45.800Z,15.05
2018-02-19T23:48:14.724Z,15.45
2018-02-19T23:50:43.657Z,15.48
2018-02-19T23:53:12.537Z,14.07
2018-02-19T23:55:41.437Z,13.70
2018-02-19T23:58:10.320Z,14.85
